createdAt,value
2023-03-05T00:01:33.620Z,99487.81
2023-03-05T00:04:35.335Z,99486.47
2023-03-05T00:07:37.076Z,99479.56
2023-03-05T00:10:38.648Z,99483.28
2023-03-05T00:13:40.294Z,99506.47
2023-03-05T00:16:41.909Z,99496.06
2023-03-05T00:19:43.546Z,99489.69
2023-03-05T00:22:45.161Z,99500.88
2023-03-05T00:25:46.834Z,99504.09
2023-03-05T00:28:50.313Z,99498.47
2023-03-05T00:31:51.941Z,99502.50
2023-03-05T00:34:53.623Z,99483.53
2023-03-05T00:37:55.475Z,99495.56
2023-03-05T00:40:57.542Z,99494.47
2023-03-05T00:43:59.283Z,99503.03
2023-03-05T00:47:01.912Z,99496.88
2023-03-05T00:50:04.719Z,99491.56
2023-03-05T00:53:07.710Z,99483.53
2023-03-05T00:56:09.551Z,99501.41
2023-03-05T00:59:12.038Z,99500.88
2023-03-05T01:02:13.750Z,99499.81
2023-03-05T01:05:15.399Z,99500.88
2023-03-05T01:08:17.650Z,99493.94
2023-03-05T01:11:19.352Z,99493.41
2023-03-05T01:14:21.330Z,99489.69
2023-03-05T01:17:23.013Z,99478.75
2023-03-05T01:20:24.763Z,99468.06
2023-03-05T01:23:26.827Z,99462.47
2023-03-05T01:26:28.487Z,99462.19
2023-03-05T01:29:30.542Z,99446.47
2023-03-05T01:32:33.632Z,99457.16
2023-03-05T01:35:36.535Z,99454.75
2023-03-05T01:38:38.259Z,99447.53
2023-03-05T01:41:39.833Z,99438.22
2023-03-05T01:45:00.415Z,99441.66
2023-03-05T01:48:02.082Z,99432.84
2023-03-05T01:51:04.126Z,99433.41
2023-03-05T01:54:08.875Z,99431.00
2023-03-05T01:57:36.379Z,99419.81
2023-03-05T02:00:50.912Z,99424.84
2023-03-05T02:03:52.634Z,99413.69
2023-03-05T02:06:54.187Z,99416.88
2023-03-05T02:09:55.876Z,99412.06
2023-03-05T02:13:01.030Z,99412.84
2023-03-05T02:16:03.008Z,99399.28
2023-03-05T02:19:07.620Z,99401.66
2023-03-05T02:22:14.910Z,99395.28
2023-03-05T02:25:20.487Z,99386.75
2023-03-05T02:28:53.800Z,99394.97
2023-03-05T02:31:55.608Z,99387.25
2023-03-05T02:34:57.318Z,99372.59
2023-03-05T02:37:59.046Z,99386.97
2023-03-05T02:41:01.103Z,99387.25
2023-03-05T02:44:02.771Z,99385.38
2023-03-05T02:47:05.188Z,99378.97
2023-03-05T02:50:11.077Z,99376.03
2023-03-05T02:53:13.340Z,99373.41
2023-03-05T02:56:15.048Z,99367.00
2023-03-05T02:59:16.941Z,99371.25
2023-03-05T03:02:19.021Z,99368.59
2023-03-05T03:05:20.883Z,99365.66
2023-03-05T03:08:22.707Z,99365.34
2023-03-05T03:11:24.425Z,99366.97
2023-03-05T03:14:26.167Z,99362.19
2023-03-05T03:17:27.773Z,99350.72
2023-03-05T03:20:29.360Z,99346.19
2023-03-05T03:23:31.825Z,99356.56
2023-03-05T03:26:34.006Z,99350.69
2023-03-05T03:29:35.826Z,99345.38
2023-03-05T03:32:37.511Z,99346.72
2023-03-05T03:35:39.187Z,99344.06
2023-03-05T03:38:40.896Z,99344.06
2023-03-05T03:41:45.395Z,99337.94
2023-03-05T03:44:47.937Z,99333.94
2023-03-05T03:47:50.734Z,99331.53
2023-03-05T03:50:52.371Z,99329.41
2023-03-05T03:53:54.870Z,99328.06
2023-03-05T03:56:56.488Z,99328.34
2023-03-05T03:59:58.214Z,99313.94
2023-03-05T04:02:59.839Z,99316.09
2023-03-05T04:06:01.482Z,99327.03
2023-03-05T04:09:03.829Z,99321.16
2023-03-05T04:12:05.585Z,99304.34
2023-03-05T04:15:08.007Z,99311.03
2023-03-05T04:18:10.148Z,99296.13
2023-03-05T04:21:12.551Z,99303.56
2023-03-05T04:24:14.240Z,99284.63
2023-03-05T04:27:15.912Z,99286.50
2023-03-05T04:30:17.603Z,99305.41
2023-03-05T04:33:19.934Z,99300.38
2023-03-05T04:36:21.774Z,99287.84
2023-03-05T04:39:23.496Z,99298.78
2023-03-05T04:42:25.297Z,99284.13
2023-03-05T04:45:26.935Z,99291.31
2023-03-05T04:48:28.644Z,99291.88
2023-03-05T04:51:30.330Z,99290.25
2023-03-05T04:54:32.085Z,99283.84
2023-03-05T04:57:33.678Z,99280.41
2023-03-05T05:00:35.365Z,99287.06
2023-03-05T05:03:37.008Z,99268.38
2023-03-05T05:06:38.685Z,99279.31
2023-03-05T05:09:41.523Z,99266.00
2023-03-05T05:12:43.592Z,99275.59
2023-03-05T05:15:45.170Z,99278.25
2023-03-05T05:18:46.886Z,99278.75
2023-03-05T05:21:48.604Z,99247.84
2023-03-05T05:24:50.354Z,99261.19
2023-03-05T05:27:52.072Z,99259.31
2023-03-05T05:30:54.100Z,99273.16
2023-03-05T05:33:55.697Z,99259.84
2023-03-05T05:36:57.297Z,99263.84
2023-03-05T05:39:59.118Z,99260.09
2023-03-05T05:43:00.812Z,99269.94
2023-03-05T05:46:04.977Z,99272.63
2023-03-05T05:49:06.743Z,99269.94
2023-03-05T05:52:08.606Z,99271.28
2023-03-05T05:55:10.665Z,99264.63
2023-03-05T05:58:12.412Z,99251.31
2023-03-05T06:01:16.964Z,99268.91
2023-03-05T06:04:18.638Z,99259.81
2023-03-05T06:07:20.245Z,99267.56
2023-03-05T06:10:21.805Z,99252.91
2023-03-05T06:13:23.568Z,99248.09
2023-03-05T06:16:25.396Z,99254.75
2023-03-05T06:19:27.132Z,99255.56
2023-03-05T06:22:28.722Z,99261.91
2023-03-05T06:25:30.327Z,99264.59
2023-03-05T06:28:32.487Z,99250.25
2023-03-05T06:31:36.797Z,99256.84
2023-03-05T06:34:38.974Z,99267.00
2023-03-05T06:37:40.589Z,99247.53
2023-03-05T06:40:42.194Z,99259.03
2023-03-05T06:43:45.608Z,99258.53
2023-03-05T06:46:47.240Z,99254.28
2023-03-05T06:49:48.839Z,99256.16
2023-03-05T06:52:51.107Z,99259.88
2023-03-05T06:55:53.467Z,99259.03
2023-03-05T06:58:55.126Z,99258.78
2023-03-05T07:01:56.756Z,99252.34
2023-03-05T07:04:58.369Z,99262.50
2023-03-05T07:08:00.031Z,99249.69
2023-03-05T07:11:01.896Z,99257.16
2023-03-05T07:14:03.581Z,99255.00
2023-03-05T07:17:06.603Z,99253.94
2023-03-05T07:20:09.405Z,99251.00
2023-03-05T07:23:11.108Z,99245.69
2023-03-05T07:26:13.339Z,99257.09
2023-03-05T07:29:14.985Z,99250.16
2023-03-05T07:32:16.684Z,99238.44
2023-03-05T07:35:18.482Z,99241.59
2023-03-05T07:38:20.247Z,99234.38
2023-03-05T07:41:23.516Z,99232.78
2023-03-05T07:44:25.283Z,99228.25
2023-03-05T07:47:26.841Z,99230.63
2023-03-05T07:50:28.484Z,99234.06
2023-03-05T07:53:30.185Z,99240.50
2023-03-05T07:56:35.436Z,99233.59
2023-03-05T07:59:38.439Z,99239.16
2023-03-05T08:02:40.129Z,99232.72
2023-03-05T08:05:42.283Z,99232.56
2023-03-05T08:08:44.169Z,99223.22
2023-03-05T08:11:45.812Z,99234.44
2023-03-05T08:14:47.954Z,99229.38
2023-03-05T08:17:49.587Z,99225.66
2023-03-05T08:20:51.299Z,99228.94
2023-03-05T08:23:53.251Z,99237.19
2023-03-05T08:26:56.278Z,99239.56
2023-03-05T08:29:58.033Z,99220.06
2023-03-05T08:32:59.668Z,99213.91
2023-03-05T08:36:01.354Z,99224.81
2023-03-05T08:39:03.509Z,99220.97
2023-03-05T08:42:08.000Z,99221.47
2023-03-05T08:45:11.079Z,99215.56
2023-03-05T08:48:12.832Z,99224.44
2023-03-05T08:51:16.863Z,99219.66
2023-03-05T08:54:18.470Z,99216.94
2023-03-05T08:57:20.043Z,99217.97
2023-03-05T09:00:21.936Z,99215.31
2023-03-05T09:03:23.594Z,99206.22
2023-03-05T09:06:26.105Z,99205.09
2023-03-05T09:09:29.944Z,99199.41
2023-03-05T09:12:31.592Z,99194.59
2023-03-05T09:15:33.205Z,99200.59
2023-03-05T09:18:36.738Z,99190.78
2023-03-05T09:21:38.526Z,99202.25
2023-03-05T09:24:40.156Z,99194.50
2023-03-05T09:27:41.767Z,99193.56
2023-03-05T09:30:43.427Z,99188.19
2023-03-05T09:33:45.208Z,99186.56
2023-03-05T09:36:46.811Z,99180.88
2023-03-05T09:39:48.506Z,99187.72
2023-03-05T09:43:21.299Z,99179.47
2023-03-05T09:46:44.954Z,99177.28
2023-03-05T09:49:58.975Z,99186.56
2023-03-05T09:53:23.637Z,99183.72
2023-03-05T09:56:32.163Z,99163.25
2023-03-05T09:59:40.884Z,99170.47
2023-03-05T10:02:53.510Z,99166.69
2023-03-05T10:06:19.987Z,99180.59
2023-03-05T10:09:40.349Z,99165.50
2023-03-05T10:12:44.606Z,99172.03
2023-03-05T10:16:28.429Z,99173.59
2023-03-05T10:19:33.117Z,99178.31
2023-03-05T10:22:51.278Z,99174.56
2023-03-05T10:26:17.935Z,99162.50
2023-03-05T10:29:37.783Z,99162.81
2023-03-05T10:32:54.351Z,99160.06
2023-03-05T10:36:07.800Z,99151.50
2023-03-05T10:39:24.382Z,99151.84
2023-03-05T10:42:52.368Z,99149.78
2023-03-05T10:45:56.560Z,99136.13
2023-03-05T10:49:16.618Z,99138.69
2023-03-05T10:52:23.107Z,99135.59
2023-03-05T10:55:24.691Z,99116.19
2023-03-05T10:58:27.519Z,99125.22
2023-03-05T11:01:31.426Z,99125.69
2023-03-05T11:04:37.237Z,99112.31
2023-03-05T11:07:38.941Z,99112.59
2023-03-05T11:10:40.604Z,99112.31
2023-03-05T11:13:48.218Z,99116.53
2023-03-05T11:16:50.962Z,99095.13
2023-03-05T11:19:52.628Z,99091.84
2023-03-05T11:23:20.750Z,99110.13
2023-03-05T11:26:23.274Z,99099.50
2023-03-05T11:29:34.705Z,99090.28
2023-03-05T11:32:36.486Z,99081.50
2023-03-05T11:35:40.373Z,99078.38
2023-03-05T11:38:51.116Z,99079.28
2023-03-05T11:41:57.934Z,99069.38
2023-03-05T11:45:00.199Z,99075.00
2023-03-05T11:48:09.373Z,99068.78
2023-03-05T11:51:17.886Z,99071.97
2023-03-05T11:54:26.748Z,99067.09
2023-03-05T11:57:37.301Z,99057.97
2023-03-05T12:00:43.989Z,99065.13
2023-03-05T12:03:46.075Z,99061.13
2023-03-05T12:06:51.971Z,99041.31
2023-03-05T12:09:56.740Z,99036.94
2023-03-05T12:13:04.435Z,99042.41
2023-03-05T12:16:17.775Z,99045.19
2023-03-05T12:19:42.774Z,99028.59
2023-03-05T12:22:44.838Z,99031.88
2023-03-05T12:25:56.979Z,99021.63
2023-03-05T12:28:58.783Z,99016.78
2023-03-05T12:32:01.891Z,99000.78
2023-03-05T12:35:22.876Z,99007.44
2023-03-05T12:38:33.270Z,99002.97
2023-03-05T12:41:35.196Z,98991.16
2023-03-05T12:44:39.745Z,98976.69
2023-03-05T12:47:47.497Z,98980.00
2023-03-05T12:50:51.561Z,98980.69
2023-03-05T12:53:53.226Z,98969.47
2023-03-05T12:57:04.443Z,98964.09
2023-03-05T13:00:11.341Z,98963.25
2023-03-05T13:03:19.174Z,98952.59
2023-03-05T13:06:27.746Z,98953.91
2023-03-05T13:09:33.573Z,98951.72
2023-03-05T13:12:49.810Z,98950.84
2023-03-05T13:15:52.717Z,98942.25
2023-03-05T13:18:56.338Z,98940.84
2023-03-05T13:22:00.719Z,98950.59
2023-03-05T13:25:20.562Z,98922.94
2023-03-05T13:28:22.288Z,98935.19
2023-03-05T13:31:24.622Z,98926.50
2023-03-05T13:34:46.572Z,98934.59
2023-03-05T13:37:49.522Z,98937.22
2023-03-05T13:41:05.032Z,98936.81
2023-03-05T13:44:06.667Z,98932.44
2023-03-05T13:47:15.037Z,98933.78
2023-03-05T13:50:28.890Z,98932.56
2023-03-05T13:53:31.647Z,98919.63
2023-03-05T13:56:33.339Z,98925.88
2023-03-05T13:59:38.869Z,98917.25
2023-03-05T14:02:42.578Z,98915.97
2023-03-05T14:05:45.455Z,98913.97
2023-03-05T14:09:00.832Z,98904.47
2023-03-05T14:12:05.658Z,98906.72
2023-03-05T14:15:23.718Z,98898.00
2023-03-05T14:18:25.383Z,98894.00
2023-03-05T14:21:44.980Z,98898.22
2023-03-05T14:24:52.844Z,98892.75
2023-03-05T14:27:54.720Z,98875.53
2023-03-05T14:30:57.458Z,98881.31
2023-03-05T14:34:06.053Z,98876.53
2023-03-05T14:37:23.357Z,98868.91
2023-03-05T14:40:33.175Z,98870.97
2023-03-05T14:43:34.793Z,98865.16
2023-03-05T14:46:36.467Z,98860.16
2023-03-05T14:49:38.073Z,98851.06
2023-03-05T14:52:40.677Z,98850.03
2023-03-05T14:55:43.739Z,98843.34
2023-03-05T14:58:45.466Z,98845.25
2023-03-05T15:01:47.220Z,98836.78
2023-03-05T15:04:49.424Z,98839.66
2023-03-05T15:07:51.519Z,98834.25
2023-03-05T15:10:53.829Z,98826.81
2023-03-05T15:13:56.016Z,98837.31
2023-03-05T15:16:57.638Z,98815.50
2023-03-05T15:19:59.334Z,98805.47
2023-03-05T15:23:01.009Z,98817.25
2023-03-05T15:26:06.341Z,98814.22
2023-03-05T15:29:07.987Z,98814.97
2023-03-05T15:32:10.041Z,98814.19
2023-03-05T15:35:11.656Z,98800.31
2023-03-05T15:38:13.461Z,98807.56
2023-03-05T15:41:16.463Z,98802.09
2023-03-05T15:44:19.389Z,98801.13
2023-03-05T15:47:21.024Z,98785.59
2023-03-05T15:50:22.712Z,98793.31
2023-03-05T15:53:24.360Z,98787.47
2023-03-05T15:56:26.030Z,98777.25
2023-03-05T15:59:27.725Z,98770.41
2023-03-05T16:02:29.500Z,98779.34
2023-03-05T16:05:33.351Z,98780.53
2023-03-05T16:08:36.894Z,98768.03
2023-03-05T16:11:40.966Z,98768.25
2023-03-05T16:14:42.733Z,98763.56
2023-03-05T16:17:47.481Z,98757.78
2023-03-05T16:20:49.388Z,98756.41
2023-03-05T16:23:51.002Z,98755.91
2023-03-05T16:26:52.789Z,98744.09
2023-03-05T16:29:54.447Z,98744.13
2023-03-05T16:32:56.365Z,98737.69
2023-03-05T16:36:16.290Z,98738.78
2023-03-05T16:39:19.289Z,98731.44
2023-03-05T16:42:21.187Z,98739.09
2023-03-05T16:45:22.829Z,98730.38
2023-03-05T16:48:24.740Z,98732.25
2023-03-05T16:51:26.885Z,98722.94
2023-03-05T16:54:28.498Z,98714.81
2023-03-05T16:57:30.217Z,98712.34
2023-03-05T17:00:32.439Z,98718.38
2023-03-05T17:03:34.157Z,98711.66
2023-03-05T17:06:35.953Z,98715.63
2023-03-05T17:09:37.516Z,98717.31
2023-03-05T17:12:39.986Z,98705.31
2023-03-05T17:18:48.323Z,98704.91
2023-03-05T17:21:52.167Z,98706.59
2023-03-05T17:24:53.805Z,98701.66
2023-03-05T17:27:55.684Z,98702.16
2023-03-05T17:31:00.137Z,98708.88
2023-03-05T17:34:01.738Z,98713.63
2023-03-05T17:37:05.296Z,98702.03
2023-03-05T17:40:07.663Z,98706.19
2023-03-05T17:43:09.486Z,98707.06
2023-03-05T17:46:12.341Z,98699.16
2023-03-05T17:49:13.928Z,98693.19
2023-03-05T17:52:15.634Z,98697.16
2023-03-05T17:55:18.808Z,98710.22
2023-03-05T17:58:20.562Z,98711.63
2023-03-05T18:01:24.643Z,98709.34
2023-03-05T18:04:26.420Z,98712.50
2023-03-05T18:07:28.231Z,98707.25
2023-03-05T18:10:31.359Z,98707.44
2023-03-05T18:13:33.013Z,98699.25
2023-03-05T18:16:35.213Z,98700.31
2023-03-05T18:19:36.942Z,98702.97
2023-03-05T18:22:38.640Z,98705.16
2023-03-05T18:25:40.639Z,98694.47
2023-03-05T18:28:42.246Z,98697.72
2023-03-05T18:31:43.963Z,98703.06
2023-03-05T18:34:45.520Z,98704.94
2023-03-05T18:37:47.202Z,98698.81
2023-03-05T18:40:51.320Z,98700.78
2023-03-05T18:43:54.513Z,98687.69
2023-03-05T18:46:56.246Z,98681.84
2023-03-05T18:49:58.337Z,98679.97
2023-03-05T18:53:00.160Z,98683.91
2023-03-05T18:56:02.224Z,98686.88
2023-03-05T18:59:04.057Z,98674.31
2023-03-05T19:02:13.489Z,98679.16
2023-03-05T19:05:15.803Z,98666.91
2023-03-05T19:08:17.926Z,98679.97
2023-03-05T19:11:20.967Z,98653.91
2023-03-05T19:14:22.732Z,98657.88
2023-03-05T19:17:24.474Z,98668.75
2023-03-05T19:20:26.349Z,98657.00
2023-03-05T19:23:28.029Z,98665.31
2023-03-05T19:26:29.903Z,98650.94
2023-03-05T19:29:32.972Z,98656.00
2023-03-05T19:32:34.964Z,98647.84
2023-03-05T19:35:38.097Z,98654.00
2023-03-05T19:38:40.203Z,98655.69
2023-03-05T19:41:42.100Z,98642.09
2023-03-05T19:44:43.760Z,98639.22
2023-03-05T19:47:45.489Z,98636.75
2023-03-05T19:50:47.202Z,98622.19
2023-03-05T19:53:49.227Z,98643.09
2023-03-05T19:56:54.763Z,98617.16
2023-03-05T19:59:56.890Z,98630.63
2023-03-05T20:02:58.500Z,98618.75
2023-03-05T20:06:00.256Z,98627.88
2023-03-05T20:09:02.041Z,98634.78
2023-03-05T20:12:05.654Z,98627.94
2023-03-05T20:15:07.797Z,98630.44
2023-03-05T20:18:10.073Z,98623.28
2023-03-05T20:21:15.979Z,98625.88
2023-03-05T20:24:19.438Z,98617.16
2023-03-05T20:27:21.178Z,98621.91
2023-03-05T20:30:23.087Z,98625.78
2023-03-05T20:33:26.028Z,98619.66
2023-03-05T20:36:27.909Z,98604.31
2023-03-05T20:39:29.824Z,98608.66
2023-03-05T20:42:31.670Z,98591.84
2023-03-05T20:45:34.610Z,98610.84
2023-03-05T20:48:36.313Z,98605.00
2023-03-05T20:51:38.435Z,98603.72
2023-03-05T20:54:40.561Z,98608.78
2023-03-05T20:57:44.140Z,98597.56
2023-03-05T21:00:45.764Z,98597.69
2023-03-05T21:03:47.774Z,98593.91
2023-03-05T21:06:52.546Z,98579.16
2023-03-05T21:09:54.209Z,98587.66
2023-03-05T21:12:56.304Z,98592.00
2023-03-05T21:15:58.138Z,98584.88
2023-03-05T21:18:59.898Z,98563.09
2023-03-05T21:22:01.596Z,98571.22
2023-03-05T21:25:21.072Z,98573.03
2023-03-05T21:28:22.994Z,98578.66
2023-03-05T21:31:24.846Z,98564.47
2023-03-05T21:34:26.401Z,98562.88
2023-03-05T21:37:28.049Z,98547.84
2023-03-05T21:40:30.699Z,98555.75
2023-03-05T21:43:32.674Z,98551.44
2023-03-05T21:46:35.302Z,98555.59
2023-03-05T21:49:37.156Z,98549.47
2023-03-05T21:52:39.667Z,98531.25
2023-03-05T21:56:03.322Z,98538.44
2023-03-05T21:59:05.007Z,98534.78
2023-03-05T22:02:10.905Z,98530.44
2023-03-05T22:05:13.392Z,98515.00
2023-03-05T22:08:15.054Z,98512.56
2023-03-05T22:11:18.598Z,98518.53
2023-03-05T22:14:20.322Z,98513.78
2023-03-05T22:17:21.908Z,98505.03
2023-03-05T22:20:23.606Z,98507.41
2023-03-05T22:23:29.329Z,98508.22
2023-03-05T22:26:37.042Z,98498.13
2023-03-05T22:29:38.770Z,98496.75
2023-03-05T22:32:40.584Z,98495.88
2023-03-05T22:35:42.629Z,98491.31
2023-03-05T22:38:44.949Z,98487.66
2023-03-05T22:41:46.780Z,98490.22
2023-03-05T22:44:48.566Z,98485.19
2023-03-05T22:47:51.357Z,98458.97
2023-03-05T22:50:56.145Z,98471.72
2023-03-05T22:53:57.842Z,98446.91
2023-03-05T22:56:59.466Z,98467.09
2023-03-05T23:00:01.104Z,98464.72
2023-03-05T23:03:02.998Z,98459.16
2023-03-05T23:06:05.567Z,98446.97
2023-03-05T23:09:07.190Z,98448.78
2023-03-05T23:12:09.666Z,98447.91
2023-03-05T23:15:14.637Z,98449.75
2023-03-05T23:18:16.263Z,98440.97
2023-03-05T23:21:18.100Z,98437.22
2023-03-05T23:24:19.732Z,98432.97
2023-03-05T23:27:21.421Z,98427.94
2023-03-05T23:30:25.224Z,98429.22
2023-03-05T23:33:26.820Z,98426.38
2023-03-05T23:36:28.481Z,98424.75
2023-03-05T23:39:30.200Z,98416.66
2023-03-05T23:42:33.129Z,98410.13
2023-03-05T23:45:35.080Z,98404.88
2023-03-05T23:48:36.729Z,98409.75
2023-03-05T23:51:38.369Z,98400.84
2023-03-05T23:54:40.071Z,98397.91
2023-03-05T23:57:41.782Z,98398.47
